createdAt,value
2018-06-14T00:00:38.456Z,0.93
2018-06-14T00:03:42.445Z,1.07
2018-06-14T00:06:46.601Z,1.20
2018-06-14T00:09:50.938Z,1.37
2018-06-14T00:12:55.360Z,1.20
2018-06-14T00:15:59.889Z,1.00
2018-06-14T00:19:04.359Z,1.20
2018-06-14T00:22:08.870Z,1.10
2018-06-14T00:25:13.575Z,0.87
2018-06-14T00:28:19.787Z,0.73
2018-06-14T00:31:24.171Z,0.70
2018-06-14T00:34:28.431Z,1.00
2018-06-14T00:37:32.822Z,0.70
2018-06-14T00:40:38.007Z,0.90
2018-06-14T00:43:42.325Z,1.00
2018-06-14T00:46:46.669Z,1.13
2018-06-14T00:49:51.124Z,1.00
2018-06-14T00:52:55.236Z,1.03
2018-06-14T00:55:59.472Z,1.00
2018-06-14T00:59:03.777Z,1.37
2018-06-14T01:02:08.085Z,1.07
2018-06-14T01:05:12.302Z,1.03
2018-06-14T01:08:16.438Z,0.90
2018-06-14T01:11:20.864Z,0.50
2018-06-14T01:14:25.076Z,0.87
2018-06-14T01:17:29.397Z,0.60
2018-06-14T01:20:33.831Z,0.77
2018-06-14T01:23:38.070Z,1.00
2018-06-14T01:26:42.426Z,0.80
2018-06-14T01:29:46.690Z,0.60
2018-06-14T01:32:51.042Z,0.80
2018-06-14T01:35:55.239Z,0.70
2018-06-14T01:38:59.452Z,0.63
2018-06-14T01:42:03.999Z,0.90
2018-06-14T01:45:08.380Z,0.80
2018-06-14T01:48:12.987Z,0.60
2018-06-14T01:51:17.263Z,0.60
2018-06-14T01:54:22.508Z,0.90
2018-06-14T01:57:26.857Z,0.50
2018-06-14T02:00:31.217Z,0.60
2018-06-14T02:03:35.598Z,0.50
2018-06-14T02:06:39.903Z,0.80
2018-06-14T02:09:44.234Z,0.53
2018-06-14T02:12:48.360Z,0.40
2018-06-14T02:15:52.761Z,0.40
2018-06-14T02:18:57.270Z,0.30
2018-06-14T02:22:01.513Z,0.30
2018-06-14T02:25:06.002Z,0.63
2018-06-14T02:28:10.395Z,0.63
2018-06-14T02:31:14.702Z,0.40
2018-06-14T02:34:19.318Z,0.63
2018-06-14T02:37:23.632Z,0.30
2018-06-14T02:40:28.224Z,0.57
2018-06-14T02:43:31.939Z,0.50
2018-06-14T02:46:36.353Z,0.50
2018-06-14T02:49:40.494Z,0.40
2018-06-14T02:52:44.853Z,0.40
2018-06-14T02:55:49.901Z,0.47
2018-06-14T02:58:54.128Z,0.37
2018-06-14T03:01:58.609Z,0.50
2018-06-14T03:05:03.192Z,0.50
2018-06-14T03:08:07.486Z,0.40
2018-06-14T03:11:11.774Z,0.43
2018-06-14T03:14:17.120Z,0.47
2018-06-14T03:17:21.846Z,0.50
2018-06-14T03:20:27.457Z,0.43
2018-06-14T03:23:32.058Z,0.30
2018-06-14T03:26:36.319Z,0.50
2018-06-14T03:29:40.801Z,0.47
2018-06-14T03:32:45.126Z,0.37
2018-06-14T03:35:49.482Z,0.40
2018-06-14T03:38:53.767Z,0.33
2018-06-14T03:41:58.002Z,0.60
2018-06-14T03:45:02.347Z,0.50
2018-06-14T03:48:06.547Z,0.60
2018-06-14T03:51:11.734Z,0.60
2018-06-14T03:54:16.190Z,0.70
2018-06-14T03:57:20.539Z,0.53
2018-06-14T04:00:24.894Z,0.50
2018-06-14T04:03:29.252Z,0.30
2018-06-14T04:06:33.487Z,0.30
2018-06-14T04:09:37.797Z,0.30
2018-06-14T04:12:42.131Z,0.50
2018-06-14T04:15:46.565Z,0.53
2018-06-14T04:18:50.929Z,0.40
2018-06-14T04:21:55.227Z,0.40
2018-06-14T04:24:59.522Z,0.40
2018-06-14T04:28:03.737Z,0.33
2018-06-14T04:31:08.167Z,0.40
2018-06-14T04:34:12.555Z,0.40
2018-06-14T04:37:16.670Z,0.40
2018-06-14T04:40:21.143Z,0.40
2018-06-14T04:43:25.487Z,0.33
2018-06-14T04:46:29.802Z,0.23
2018-06-14T04:49:34.389Z,0.30
2018-06-14T04:52:38.676Z,0.27
2018-06-14T04:55:42.991Z,0.30
2018-06-14T04:58:47.111Z,0.20
2018-06-14T05:01:51.151Z,0.30
2018-06-14T05:04:54.922Z,0.33
2018-06-14T05:07:59.409Z,0.47
2018-06-14T05:11:03.768Z,0.47
2018-06-14T05:14:08.196Z,0.40
2018-06-14T05:17:12.419Z,0.60
2018-06-14T05:20:16.597Z,0.57
2018-06-14T05:23:20.914Z,0.53
2018-06-14T05:26:25.424Z,0.53
2018-06-14T05:29:30.088Z,0.50
2018-06-14T05:32:34.373Z,0.50
2018-06-14T05:35:38.574Z,0.50
2018-06-14T05:38:42.746Z,0.30
2018-06-14T05:41:47.048Z,0.40
2018-06-14T05:44:51.498Z,0.50
2018-06-14T05:47:55.611Z,0.30
2018-06-14T05:50:59.802Z,0.50
2018-06-14T05:54:04.059Z,0.47
2018-06-14T05:57:08.322Z,0.40
2018-06-14T06:00:19.419Z,1.00
2018-06-14T06:03:23.790Z,0.50
2018-06-14T06:06:28.127Z,0.70
2018-06-14T06:09:32.490Z,0.30
2018-06-14T06:12:37.019Z,0.70
2018-06-14T06:15:41.493Z,0.40
2018-06-14T06:18:45.711Z,0.30
2018-06-14T06:21:50.066Z,0.93
2018-06-14T06:24:55.067Z,0.30
2018-06-14T06:27:59.470Z,0.30
2018-06-14T06:31:03.884Z,0.50
2018-06-14T06:34:08.280Z,0.40
2018-06-14T06:37:12.185Z,0.40
2018-06-14T06:40:16.390Z,0.33
2018-06-14T06:43:20.701Z,0.30
2018-06-14T06:46:25.445Z,1.00
2018-06-14T06:49:29.329Z,0.40
2018-06-14T06:52:33.318Z,0.47
2018-06-14T06:55:37.258Z,0.43
2018-06-14T06:58:41.147Z,0.30
2018-06-14T07:01:45.162Z,0.50
2018-06-14T07:04:49.304Z,0.30
2018-06-14T07:07:53.243Z,0.30
2018-06-14T07:10:57.614Z,0.37
2018-06-14T07:14:02.040Z,0.30
2018-06-14T07:17:08.013Z,0.30
2018-06-14T07:20:13.511Z,0.43
2018-06-14T07:23:18.593Z,0.30
2018-06-14T07:26:28.936Z,0.50
2018-06-14T07:29:33.062Z,0.60
2018-06-14T07:32:37.378Z,0.37
2018-06-14T07:35:41.542Z,0.40
2018-06-14T07:38:45.919Z,0.33
2018-06-14T07:41:50.090Z,0.40
2018-06-14T07:44:54.285Z,0.40
2018-06-14T07:47:58.527Z,0.43
2018-06-14T07:51:02.811Z,0.50
2018-06-14T07:54:07.075Z,0.60
2018-06-14T07:57:11.379Z,0.57
2018-06-14T08:00:15.627Z,0.40
2018-06-14T08:03:19.829Z,0.40
2018-06-14T08:06:24.119Z,0.50
2018-06-14T08:09:28.465Z,0.60
2018-06-14T08:12:32.794Z,0.37
2018-06-14T08:15:37.114Z,0.70
2018-06-14T08:18:41.310Z,0.50
2018-06-14T08:21:47.211Z,0.50
2018-06-14T08:24:51.458Z,0.50
2018-06-14T08:27:55.732Z,0.50
2018-06-14T08:31:00.157Z,0.40
2018-06-14T08:34:04.846Z,0.57
2018-06-14T08:37:09.404Z,0.50
2018-06-14T08:40:13.632Z,0.60
2018-06-14T08:43:18.275Z,0.50
2018-06-14T08:46:23.494Z,0.60
2018-06-14T08:49:27.987Z,0.50
2018-06-14T08:52:32.372Z,0.50
2018-06-14T08:55:36.843Z,0.50
2018-06-14T08:58:41.358Z,0.70
2018-06-14T09:01:45.720Z,0.57
2018-06-14T09:04:50.209Z,0.63
2018-06-14T09:07:54.717Z,0.67
2018-06-14T09:10:59.286Z,0.73
2018-06-14T09:14:03.894Z,0.87
2018-06-14T09:17:08.117Z,0.63
2018-06-14T09:20:12.296Z,0.70
2018-06-14T09:23:16.304Z,0.83
2018-06-14T09:26:20.368Z,0.90
2018-06-14T09:29:24.767Z,0.70
2018-06-14T09:32:29.110Z,1.20
2018-06-14T09:35:33.438Z,0.70
2018-06-14T09:38:38.113Z,0.90
2018-06-14T09:41:42.402Z,0.90
2018-06-14T09:44:47.022Z,0.50
2018-06-14T09:47:51.452Z,1.10
2018-06-14T09:50:55.642Z,1.00
2018-06-14T09:54:00.120Z,0.93
2018-06-14T09:57:04.553Z,1.23
2018-06-14T10:00:09.566Z,0.87
2018-06-14T10:03:14.044Z,1.03
2018-06-14T10:06:18.479Z,0.77
2018-06-14T10:09:22.903Z,0.80
2018-06-14T10:12:27.270Z,0.80
2018-06-14T10:15:31.604Z,0.93
2018-06-14T10:18:36.088Z,1.00
2018-06-14T10:21:40.831Z,1.03
2018-06-14T10:24:45.232Z,0.80
2018-06-14T10:27:49.338Z,1.83
2018-06-14T10:30:53.532Z,0.90
2018-06-14T10:33:57.928Z,1.00
2018-06-14T10:37:02.136Z,1.20
2018-06-14T10:40:06.709Z,1.27
2018-06-14T10:43:11.100Z,1.23
2018-06-14T10:46:15.230Z,1.37
2018-06-14T10:49:19.223Z,1.30
2018-06-14T10:52:23.170Z,1.37
2018-06-14T10:55:27.361Z,1.43
2018-06-14T10:58:31.635Z,1.70
2018-06-14T11:01:35.574Z,1.50
2018-06-14T11:04:39.808Z,1.40
2018-06-14T11:07:43.806Z,1.60
2018-06-14T11:10:48.071Z,1.50
2018-06-14T11:13:52.393Z,1.37
2018-06-14T11:16:56.420Z,1.70
2018-06-14T11:20:00.880Z,1.70
2018-06-14T11:23:04.851Z,1.77
2018-06-14T11:26:09.747Z,1.80
2018-06-14T11:29:13.790Z,1.80
2018-06-14T11:32:18.193Z,1.80
2018-06-14T11:35:22.529Z,2.30
2018-06-14T11:38:26.974Z,1.80
2018-06-14T11:41:31.219Z,1.70
2018-06-14T11:44:35.136Z,2.20
2018-06-14T11:47:39.360Z,2.00
2018-06-14T11:50:43.401Z,1.90
2018-06-14T11:53:47.767Z,1.97
2018-06-14T11:56:52.120Z,2.17
2018-06-14T11:59:56.437Z,2.37
2018-06-14T12:03:00.970Z,2.00
2018-06-14T12:06:04.931Z,2.07
2018-06-14T12:09:09.141Z,2.00
2018-06-14T12:12:13.357Z,2.40
2018-06-14T12:15:17.792Z,2.20
2018-06-14T12:18:22.105Z,2.27
2018-06-14T12:21:26.113Z,2.40
2018-06-14T12:24:30.566Z,2.37
2018-06-14T12:27:35.415Z,2.20
2018-06-14T12:30:39.831Z,2.20
2018-06-14T12:33:44.411Z,2.10
2018-06-14T12:36:48.708Z,2.10
2018-06-14T12:39:55.185Z,2.80
2018-06-14T12:42:59.417Z,2.10
2018-06-14T12:46:03.880Z,2.60
2018-06-14T12:49:08.339Z,2.57
2018-06-14T12:52:12.012Z,2.23
2018-06-14T12:55:16.454Z,2.00
2018-06-14T12:58:21.917Z,2.50
2018-06-14T13:01:26.427Z,2.40
2018-06-14T13:04:31.342Z,2.30
2018-06-14T13:07:35.772Z,2.43
2018-06-14T13:10:40.684Z,2.33
2018-06-14T13:13:45.106Z,2.37
2018-06-14T13:16:49.553Z,2.20
2018-06-14T13:19:53.866Z,2.60
2018-06-14T13:22:58.184Z,2.10
2018-06-14T13:26:02.399Z,2.80
2018-06-14T13:29:06.909Z,2.50
2018-06-14T13:32:11.654Z,2.67
2018-06-14T13:35:15.575Z,2.67
2018-06-14T13:38:19.991Z,2.80
2018-06-14T13:41:23.905Z,3.40
2018-06-14T13:44:28.106Z,2.70
2018-06-14T13:47:32.549Z,2.43
2018-06-14T13:50:36.970Z,2.90
2018-06-14T13:53:41.434Z,3.13
2018-06-14T13:56:45.834Z,3.40
2018-06-14T13:59:50.281Z,2.70
2018-06-14T14:02:54.525Z,2.93
2018-06-14T14:05:58.950Z,3.10
2018-06-14T14:09:03.356Z,6.77
2018-06-14T14:12:07.633Z,4.50
2018-06-14T14:15:11.763Z,3.30
2018-06-14T14:18:16.079Z,4.00
2018-06-14T14:21:20.554Z,4.23
2018-06-14T14:24:24.893Z,4.37
2018-06-14T14:27:29.295Z,3.90
2018-06-14T14:30:33.525Z,3.57
2018-06-14T14:33:38.082Z,3.90
2018-06-14T14:36:42.543Z,4.10
2018-06-14T14:39:46.980Z,3.23
2018-06-14T14:42:51.304Z,4.10
2018-06-14T14:45:55.591Z,3.50
2018-06-14T14:48:59.853Z,3.27
2018-06-14T14:52:04.039Z,3.30
2018-06-14T14:55:08.226Z,4.20
2018-06-14T14:58:12.399Z,4.07
2018-06-14T15:01:16.620Z,19.80
2018-06-14T15:04:21.099Z,7.97
2018-06-14T15:07:25.783Z,3.40
2018-06-14T15:10:30.156Z,3.20
2018-06-14T15:13:34.616Z,3.20
2018-06-14T15:16:38.879Z,3.30
2018-06-14T15:19:43.022Z,3.00
2018-06-14T15:22:47.782Z,3.60
2018-06-14T15:25:51.857Z,3.23
2018-06-14T15:28:56.595Z,3.07
2018-06-14T15:32:01.151Z,3.07
2018-06-14T15:35:05.490Z,3.00
2018-06-14T15:38:15.986Z,3.13
2018-06-14T15:41:20.326Z,3.20
2018-06-14T15:44:24.956Z,2.77
2018-06-14T15:47:29.561Z,4.00
2018-06-14T15:50:33.867Z,3.67
2018-06-14T15:53:38.255Z,3.40
2018-06-14T15:56:43.141Z,3.30
2018-06-14T15:59:47.455Z,3.00
2018-06-14T16:02:51.617Z,2.77
2018-06-14T16:05:55.871Z,2.80
2018-06-14T16:09:00.536Z,3.13
2018-06-14T16:12:04.991Z,3.00
2018-06-14T16:15:09.469Z,3.20
2018-06-14T16:18:14.211Z,3.33
2018-06-14T16:21:18.946Z,3.67
2018-06-14T16:24:23.307Z,3.30
2018-06-14T16:27:27.750Z,3.37
2018-06-14T16:30:32.166Z,3.50
2018-06-14T16:33:36.454Z,2.90
2018-06-14T16:36:40.601Z,3.50
2018-06-14T16:39:45.086Z,3.20
2018-06-14T16:42:49.421Z,3.17
2018-06-14T16:45:53.866Z,3.73
2018-06-14T16:48:57.592Z,4.03
2018-06-14T16:52:01.955Z,3.83
2018-06-14T16:55:06.504Z,3.20
2018-06-14T16:58:10.985Z,4.00
2018-06-14T17:01:15.389Z,3.50
2018-06-14T17:04:19.325Z,3.60
2018-06-14T17:07:23.456Z,3.47
2018-06-14T17:10:27.582Z,2.90
2018-06-14T17:13:31.772Z,3.50
2018-06-14T17:16:35.762Z,4.40
2018-06-14T17:19:39.991Z,3.97
2018-06-14T17:22:45.468Z,3.20
2018-06-14T17:25:50.984Z,3.70
2018-06-14T17:28:55.359Z,3.30
2018-06-14T17:31:59.580Z,4.47
2018-06-14T17:35:03.999Z,4.10
2018-06-14T17:38:08.622Z,4.00
2018-06-14T17:41:13.212Z,3.57
2018-06-14T17:44:17.799Z,4.63
2018-06-14T17:47:22.630Z,4.60
2018-06-14T17:50:27.878Z,3.67
2018-06-14T17:53:32.902Z,2.93
2018-06-14T17:56:36.900Z,3.47
2018-06-14T17:59:41.185Z,3.60
2018-06-14T18:02:45.774Z,4.37
2018-06-14T18:05:51.256Z,3.23
2018-06-14T18:08:55.785Z,4.10
2018-06-14T18:12:00.453Z,3.93
2018-06-14T18:15:04.701Z,3.22
2018-06-14T18:18:09.118Z,3.30
2018-06-14T18:21:14.350Z,3.43
2018-06-14T18:24:18.894Z,3.93
2018-06-14T18:27:24.305Z,3.50
2018-06-14T18:30:28.556Z,3.90
2018-06-14T18:33:32.869Z,4.23
2018-06-14T18:36:37.887Z,4.00
2018-06-14T18:39:42.762Z,3.63
2018-06-14T18:42:47.204Z,3.53
2018-06-14T18:45:51.564Z,3.73
2018-06-14T18:48:55.950Z,4.03
2018-06-14T18:52:00.513Z,3.50
2018-06-14T18:55:04.696Z,3.70
2018-06-14T18:58:09.321Z,3.77
2018-06-14T19:01:13.285Z,2.93
2018-06-14T19:04:17.266Z,3.30
2018-06-14T19:07:21.313Z,3.70
2018-06-14T19:10:26.261Z,3.90
2018-06-14T19:13:30.760Z,3.70
2018-06-14T19:16:35.143Z,4.60
2018-06-14T19:19:39.419Z,3.30
2018-06-14T19:22:43.378Z,3.43
2018-06-14T19:25:47.963Z,3.83
2018-06-14T19:28:52.102Z,3.43
2018-06-14T19:31:57.057Z,3.33
2018-06-14T19:35:01.369Z,3.20
2018-06-14T19:38:05.918Z,3.80
2018-06-14T19:41:10.517Z,3.67
2018-06-14T19:44:15.035Z,3.20
2018-06-14T19:47:19.437Z,3.70
2018-06-14T19:50:24.663Z,4.07
2018-06-14T19:53:29.292Z,3.13
2018-06-14T19:56:33.685Z,3.33
2018-06-14T19:59:39.256Z,3.53
2018-06-14T20:02:43.481Z,3.70
2018-06-14T20:05:48.028Z,4.00
2018-06-14T20:08:52.387Z,3.47
2018-06-14T20:11:56.804Z,3.97
2018-06-14T20:15:01.153Z,3.50
2018-06-14T20:18:05.659Z,3.87
2018-06-14T20:21:10.108Z,3.27
2018-06-14T20:24:14.377Z,3.97
2018-06-14T20:27:18.898Z,3.80
2018-06-14T20:30:23.152Z,3.77
2018-06-14T20:33:27.639Z,3.30
2018-06-14T20:36:32.426Z,4.37
2018-06-14T20:39:37.000Z,4.07
2018-06-14T20:42:41.318Z,4.73
2018-06-14T20:45:45.940Z,4.70
2018-06-14T20:48:50.619Z,4.30
2018-06-14T20:51:55.124Z,3.63
2018-06-14T20:54:59.762Z,4.00
2018-06-14T20:58:04.080Z,3.60
2018-06-14T21:01:09.499Z,4.40
2018-06-14T21:04:13.768Z,4.70
2018-06-14T21:07:17.590Z,4.37
2018-06-14T21:10:22.079Z,3.77
2018-06-14T21:13:26.526Z,4.50
2018-06-14T21:16:30.887Z,3.67
2018-06-14T21:19:35.468Z,4.37
2018-06-14T21:22:39.433Z,4.50
2018-06-14T21:25:43.622Z,4.70
2018-06-14T21:28:47.934Z,4.67
2018-06-14T21:31:52.254Z,4.57
2018-06-14T21:34:57.254Z,3.90
2018-06-14T21:38:01.223Z,4.50
2018-06-14T21:41:05.959Z,4.60
2018-06-14T21:44:10.993Z,4.63
2018-06-14T21:47:14.954Z,4.80
2018-06-14T21:50:19.671Z,5.03
2018-06-14T21:53:24.098Z,5.00
2018-06-14T21:56:28.079Z,4.60
2018-06-14T21:59:32.099Z,5.40
2018-06-14T22:02:40.342Z,4.70
2018-06-14T22:05:44.271Z,4.60
2018-06-14T22:08:48.538Z,4.23
2018-06-14T22:11:52.658Z,4.67
2018-06-14T22:14:57.289Z,4.17
2018-06-14T22:18:01.617Z,4.17
2018-06-14T22:21:05.886Z,4.23
2018-06-14T22:24:09.561Z,4.27
2018-06-14T22:27:14.040Z,4.47
2018-06-14T22:30:18.538Z,3.80
2018-06-14T22:33:33.493Z,5.17
2018-06-14T22:36:37.772Z,3.90
2018-06-14T22:39:41.855Z,3.83
2018-06-14T22:42:45.590Z,5.03
2018-06-14T22:45:49.972Z,4.67
2018-06-14T22:48:54.506Z,3.67
2018-06-14T22:53:18.322Z,4.20
2018-06-14T22:56:22.696Z,4.20
2018-06-14T22:59:27.121Z,3.93
2018-06-14T23:02:31.471Z,3.80
2018-06-14T23:05:35.908Z,3.63
2018-06-14T23:08:40.291Z,5.00
2018-06-14T23:11:45.032Z,4.10
2018-06-14T23:14:49.160Z,3.93
2018-06-14T23:17:53.784Z,3.93
2018-06-14T23:20:58.219Z,4.20
2018-06-14T23:24:02.607Z,3.73
2018-06-14T23:27:07.567Z,3.83
2018-06-14T23:30:11.785Z,3.87
2018-06-14T23:33:16.061Z,4.30
2018-06-14T23:36:20.420Z,3.97
2018-06-14T23:39:24.714Z,4.07
2018-06-14T23:42:28.698Z,4.00
2018-06-14T23:45:32.582Z,4.77
2018-06-14T23:48:36.518Z,3.80
2018-06-14T23:51:40.668Z,4.83
2018-06-14T23:54:45.068Z,3.90
2018-06-14T23:57:49.587Z,4.03
